Fayetteville, New York
Current Conditions -  °F | °C
As of 7:54 PM on Monday 24 Nov 2014 (Local Time) from KSYR Reporting Station
Broken Clouds Broken Clouds  
Wind Chill: 59°   Ceiling: 9000
Heat Index: 59°   Visibility: 10mi
Dew Point: 49°   Wind: 15mph
Humidity: 69%   Direction: 230°SW
Pressure: 29.51"   Gusts: 23mph
Location:  43.03°N, 76°W
Report Text: KSYR 250054Z 23013G20KT 10SM FEW060 FEW075 BKN090 15/09 A2951 RMK AO2 PK WND 26030/0021 SLP990 RAB00E40 P0008 T01500094
Loading
Personal Weather Stations






























Interactive Weather Map New forecast layout! Learn more

10-Day Weather Forecast

Advertisements
Track Severe Weather on mobile